Weather at Venepal Airport

Public forecast

Using degrees Celsius for public forecast. Weather courtesy of forecast.io.

Closest aviation weather report (METAR) to Venepal Airport

Closest report is Arturo Michelena International Airport, 30.0 nm (55.6 km) SE.

2024/06/14 15:00 (retrieved 53 minutes ago)

SVVA 141500Z /////KT 9999 BKN016 29/20 Q1017

Closest aviation forecast (TAF) to Venepal Airport

Forecast is more than 12 hours old.

Closest forecast is Arturo Michelena International Airport, 30.0 nm (55.6 km) SE.

2024/06/13 12:15 (retrieved 1 day ago)

TAF TAF SVVA 131100Z 1312/1412 12005KT 9999 SCT016 TX31/1318Z TN21/1409Z TEMPO 1316/1320 18005KT 9999 SCT016 TEMPO 1323/1403 07004KT 9999 BKN016